»·PEaware :: ASA404 KPDX-KSFO

ASA404 :: KPDX-KSFO

FLIGHT INFORMATION

Flight Status: Arrived
Operator:
Alaska Airlines
More flights by this operator :: More flights under this callsign
Pilot: Jack S. (366)
Aircraft: Unknown
(B727)
More flights by this aircraft type
Origin: KPDX Portland Intl
United States
Destination: KSFO San Francisco Intl
United States
More flights between these airports :: More routes between these airports
Route: +PTLD1 OED J501 PYE STINS3
File this flight plan on PilotEdge
Remarks: Alaska 404
Altitude:
(Current/Filed)
33,000ft
Speed:
(Current/Filed)
450kts
Departed: 23-Jul-18 07:57 AM
Arrived: 23-Jul-18 09:29 AM
Distance/Time
Traveled:
480nm/1:32
Distance/Time
To Go:
Arrived

Flight Plot

Page will automatically refresh every two minutes.

Flight plan parsing failed; only flown route is shown


Map Options




Map Legend


Flown Route
Filed Route
Departure Airport
Arrival Airport
Navaid (VOR, NDB)
Fix

Horizontal Profiles

Position Reports

Time Latitude Longitude Heading Altitude Ground
Speed
23-Jul-18 07:11 45.588347 -122.596365 45 41ft 0kts
23-Jul-18 07:12 45.588347 -122.596365 45 41ft 0kts
23-Jul-18 07:13 45.588347 -122.596365 45 41ft 0kts
23-Jul-18 07:14 45.588347 -122.596365 45 41ft 0kts
23-Jul-18 07:15 45.588347 -122.596365 45 41ft 0kts
23-Jul-18 07:16 45.588347 -122.596365 45 41ft 0kts
23-Jul-18 07:17 45.588344 -122.596370 45 41ft 0kts
23-Jul-18 07:18 45.587874 -122.597072 46 41ft 0kts
23-Jul-18 07:19 45.587874 -122.597072 46 41ft 0kts
23-Jul-18 07:20 45.587874 -122.597072 46 41ft 0kts
23-Jul-18 07:21 45.587874 -122.597072 46 41ft 0kts
23-Jul-18 07:22 45.587874 -122.597072 46 41ft 0kts
23-Jul-18 07:23 45.587874 -122.597072 46 41ft 0kts
23-Jul-18 07:24 45.587874 -122.597072 46 41ft 0kts
23-Jul-18 07:25 45.587874 -122.597072 46 41ft 0kts
23-Jul-18 07:26 45.587946 -122.596926 63 41ft 3kts
23-Jul-18 07:27 45.587963 -122.596771 94 41ft 0kts
23-Jul-18 07:28 45.587963 -122.596771 94 41ft 0kts
23-Jul-18 07:29 45.587963 -122.596771 94 41ft 0kts
23-Jul-18 07:30 45.587963 -122.596771 94 41ft 0kts
23-Jul-18 07:31 45.587963 -122.596771 94 41ft 0kts
23-Jul-18 07:32 45.587963 -122.596771 94 41ft 0kts
23-Jul-18 07:33 45.587963 -122.596771 94 41ft 0kts
23-Jul-18 07:34 45.587963 -122.596771 94 41ft 0kts
23-Jul-18 07:35 45.587963 -122.596771 94 41ft 0kts
23-Jul-18 07:36 45.587963 -122.596771 94 41ft 0kts
23-Jul-18 07:37 45.587963 -122.596771 94 41ft 0kts
23-Jul-18 07:44 45.588347 -122.596365 46 41ft 0kts
23-Jul-18 07:45 45.588347 -122.596365 46 41ft 0kts
23-Jul-18 07:46 45.588347 -122.596365 46 41ft 0kts
23-Jul-18 07:47 45.588347 -122.596365 46 41ft 0kts
23-Jul-18 07:48 45.588347 -122.596365 46 41ft 0kts
23-Jul-18 07:49 45.588156 -122.596651 45 41ft 2kts
23-Jul-18 07:50 45.588154 -122.597425 121 41ft 2kts
23-Jul-18 07:51 45.588178 -122.597484 118 41ft 0kts
23-Jul-18 07:52 45.588178 -122.597484 118 41ft 0kts
23-Jul-18 07:53 45.588178 -122.597484 118 41ft 0kts
23-Jul-18 07:54 45.587009 -122.594981 132 41ft 19kts
23-Jul-18 07:55 45.583649 -122.588731 118 41ft 21kts
23-Jul-18 07:56 45.581514 -122.583682 156 41ft 0kts
23-Jul-18 07:57 45.580923 -122.584090 253 41ft 12kts
23-Jul-18 07:58 45.593901 -122.618041 299 434ft 191kts
23-Jul-18 07:59 45.622911 -122.689649 297 3121ft 244kts
23-Jul-18 08:00 45.641683 -122.783017 246 6456ft 270kts
23-Jul-18 08:01 45.578314 -122.818485 185 9649ft 285kts
23-Jul-18 08:02 45.496469 -122.824254 184 11933ft 324kts
23-Jul-18 08:03 45.406633 -122.830073 184 14897ft 333kts
23-Jul-18 08:04 45.313367 -122.834523 184 17323ft 343kts
23-Jul-18 08:05 45.216766 -122.837572 184 19433ft 354kts
23-Jul-18 08:06 45.118197 -122.844367 187 21310ft 362kts
23-Jul-18 08:07 45.017717 -122.849505 185 23019ft 370kts
23-Jul-18 08:08 44.916982 -122.852683 185 24497ft 378kts
23-Jul-18 08:09 44.815730 -122.855386 185 25805ft 385kts
23-Jul-18 08:10 44.708224 -122.858185 185 27033ft 392kts
23-Jul-18 08:11 44.599159 -122.861109 185 28115ft 399kts
23-Jul-18 08:12 44.488238 -122.863870 185 29135ft 405kts
23-Jul-18 08:13 44.375484 -122.866807 185 30043ft 410kts
23-Jul-18 08:14 44.264869 -122.869585 185 31121ft 408kts
23-Jul-18 08:15 44.152640 -122.872379 185 32118ft 405kts
23-Jul-18 08:16 44.040622 -122.875061 186 33012ft 403kts
23-Jul-18 08:17 43.927632 -122.878044 186 33185ft 418kts
23-Jul-18 08:18 43.815212 -122.880732 185 33191ft 435kts
23-Jul-18 08:19 43.692172 -122.883748 185 33257ft 450kts
23-Jul-18 08:20 43.568015 -122.886734 185 34014ft 447kts
23-Jul-18 08:21 43.444680 -122.889758 185 34637ft 446kts
23-Jul-18 08:22 43.321813 -122.892761 185 35167ft 445kts
23-Jul-18 08:23 43.197853 -122.895911 185 35175ft 456kts
23-Jul-18 08:24 43.070595 -122.898922 185 35174ft 464kts
23-Jul-18 08:25 42.941198 -122.902079 184 35169ft 467kts
23-Jul-18 08:26 42.820375 -122.904908 184 35175ft 463kts
23-Jul-18 08:27 42.694892 -122.907858 184 35174ft 459kts
23-Jul-18 08:28 42.569762 -122.910846 184 35174ft 457kts
23-Jul-18 08:29 42.445424 -122.913810 184 35172ft 449kts
23-Jul-18 08:30 42.328336 -122.922895 187 35169ft 434kts
23-Jul-18 08:31 42.210237 -122.932099 186 35172ft 432kts
23-Jul-18 08:32 42.091842 -122.940595 186 35171ft 433kts
23-Jul-18 08:33 41.973548 -122.948863 186 35196ft 432kts
23-Jul-18 08:34 41.866406 -122.956291 186 35225ft 432kts
23-Jul-18 08:35 41.748721 -122.964417 186 35214ft 434kts
23-Jul-18 08:36 41.630106 -122.972513 186 35238ft 433kts
23-Jul-18 08:37 41.512953 -122.980728 186 35237ft 432kts
23-Jul-18 08:38 41.396261 -122.988824 186 35242ft 436kts
23-Jul-18 08:39 41.275845 -122.997078 186 35241ft 453kts
23-Jul-18 08:40 41.168377 -123.004292 186 35239ft 465kts
23-Jul-18 08:41 41.054516 -123.012033 186 35187ft 465kts
23-Jul-18 08:42 40.926678 -123.020745 185 35077ft 463kts
23-Jul-18 08:43 40.807062 -123.028664 185 35084ft 460kts
23-Jul-18 08:44 40.680272 -123.034795 184 35083ft 458kts
23-Jul-18 08:45 40.553777 -123.036258 181 35082ft 457kts
23-Jul-18 08:46 40.427383 -123.029012 180 35081ft 456kts
23-Jul-18 08:47 40.301261 -123.020304 179 35080ft 455kts
23-Jul-18 08:48 40.175935 -123.011461 179 35086ft 454kts
23-Jul-18 08:49 40.050581 -123.002618 179 35101ft 453kts
23-Jul-18 08:50 39.925566 -122.993817 179 35109ft 452kts
23-Jul-18 08:51 39.809601 -122.985863 179 35116ft 453kts
23-Jul-18 08:52 39.686050 -122.977175 180 34558ft 439kts
23-Jul-18 08:53 39.566040 -122.968880 179 32461ft 428kts
23-Jul-18 08:54 39.449573 -122.960789 179 30500ft 415kts
23-Jul-18 08:55 39.336760 -122.953016 179 28583ft 403kts
23-Jul-18 08:56 39.229244 -122.945595 178 26738ft 392kts
23-Jul-18 08:57 39.122642 -122.938276 178 24895ft 382kts
23-Jul-18 08:58 39.018617 -122.931112 178 23086ft 372kts
23-Jul-18 08:59 38.918933 -122.924299 177 21351ft 364kts
23-Jul-18 09:00 38.842134 -122.919103 177 20261ft 358kts
23-Jul-18 09:01 38.745369 -122.912545 177 18837ft 351kts
23-Jul-18 09:02 38.650055 -122.906078 177 17327ft 344kts
23-Jul-18 09:03 38.556699 -122.899759 177 15826ft 337kts
23-Jul-18 09:04 38.465472 -122.893601 177 14281ft 331kts
23-Jul-18 09:05 38.390349 -122.888540 177 13022ft 326kts
23-Jul-18 09:06 38.301302 -122.882554 176 11621ft 320kts
23-Jul-18 09:07 38.215927 -122.876836 176 10687ft 282kts
23-Jul-18 09:08 38.126863 -122.870926 175 9167ft 278kts
23-Jul-18 09:09 38.053959 -122.860980 158 9001ft 264kts
23-Jul-18 09:10 37.982363 -122.826615 161 8997ft 289kts
23-Jul-18 09:11 37.905961 -122.792212 162 8988ft 296kts
23-Jul-18 09:12 37.845736 -122.765266 161 8983ft 278kts
23-Jul-18 09:13 37.792584 -122.699537 125 7688ft 282kts
23-Jul-18 09:14 37.750619 -122.620248 125 7021ft 266kts
23-Jul-18 09:15 37.700406 -122.567141 169 6329ft 251kts
23-Jul-18 09:16 37.636924 -122.549191 168 6007ft 223kts
23-Jul-18 09:17 37.595535 -122.507896 132 6029ft 239kts
23-Jul-18 09:18 37.557408 -122.440496 123 5522ft 245kts
23-Jul-18 09:19 37.522798 -122.373213 123 5013ft 232kts
23-Jul-18 09:20 37.491827 -122.313504 124 5024ft 228kts
23-Jul-18 09:21 37.456822 -122.247023 124 4498ft 243kts
23-Jul-18 09:22 37.451749 -122.179790 34 4032ft 201kts
23-Jul-18 09:23 37.498866 -122.139552 17 3096ft 208kts
23-Jul-18 09:24 37.535807 -122.168340 287 3088ft 153kts
23-Jul-18 09:25 37.553675 -122.219294 297 2415ft 181kts
23-Jul-18 09:26 37.575060 -122.271091 298 1505ft 152kts
23-Jul-18 09:27 37.593348 -122.314622 298 777ft 137kts
23-Jul-18 09:28 37.609880 -122.354004 298 167ft 131kts
23-Jul-18 09:29 37.620881 -122.380257 297 35ft 42kts
23-Jul-18 09:30 37.621091 -122.383227 202 35ft 2kts
23-Jul-18 09:31 37.619708 -122.382140 116 35ft 10kts
23-Jul-18 09:32 37.616976 -122.379520 191 34ft 16kts
23-Jul-18 09:33 37.614039 -122.381449 213 35ft 16kts
23-Jul-18 09:34 37.614309 -122.382765 29 35ft 0kts
23-Jul-18 09:35 37.614309 -122.382765 29 35ft 0kts
23-Jul-18 09:36 37.614309 -122.382765 29 35ft 0kts
23-Jul-18 09:37 37.614309 -122.382765 29 35ft 0kts
23-Jul-18 09:38 37.575016 -122.270986 298 1506ft 152kts
23-Jul-18 09:39 37.593350 -122.314626 298 777ft 137kts

Navigation Log

Ident Type
Flight plan parsing failed, navigation log unavailable